Time;durP1;ratioP1;P1;durP2;ratioP2;P2;SDS_P1;SDS_P2;PMS_P1;PMS_P2;Temp;Humidity;BMP_temperature;BMP_pressure;BME280_temperature;BME280_humidity;BME280_pressure;Samples;Min_cycle;Max_cycle;Signal;HPM_P1;HPM_P2
2022/02/14 00:02:06;;;;;;;6.80;4.88;;;;;;;0.58;100.00;95233.16;5072142;28;24966;-72
2022/02/14 00:04:34;;;;;;;8.27;5.03;;;;;;;0.55;100.00;95222.22;5072412;28;24517;-72
2022/02/14 00:07:00;;;;;;;10.93;4.68;;;;;;;0.55;100.00;95224.78;5072027;28;24415;-72
2022/02/14 00:09:27;;;;;;;5.20;4.38;;;;;;;0.65;100.00;95224.41;5072268;28;24477;-72
2022/02/14 00:11:53;;;;;;;5.30;4.70;;;;;;;0.66;100.00;95222.69;5072086;28;24488;-72
2022/02/14 00:14:20;;;;;;;5.70;4.38;;;;;;;0.64;100.00;95217.66;5072032;28;24414;-72
2022/02/14 00:16:47;;;;;;;5.82;4.82;;;;;;;0.68;100.00;95209.03;5071586;28;24767;-72
2022/02/14 00:19:14;;;;;;;5.88;4.10;;;;;;;0.74;100.00;95205.44;5072196;28;24430;-72
2022/02/14 00:21:41;;;;;;;8.00;4.88;;;;;;;0.68;100.00;95209.03;5072036;28;24415;-73
2022/02/14 00:24:09;;;;;;;6.57;4.40;;;;;;;0.68;100.00;95203.94;5071936;28;24418;-73
2022/02/14 00:26:36;;;;;;;5.80;4.50;;;;;;;0.72;100.00;95202.94;5071773;28;24501;-73
2022/02/14 00:29:03;;;;;;;5.88;4.38;;;;;;;0.69;100.00;95197.94;5071707;28;24430;-73
2022/02/14 00:31:30;;;;;;;7.03;4.80;;;;;;;0.71;100.00;95193.66;5071759;28;24968;-73
2022/02/14 00:33:56;;;;;;;6.18;5.18;;;;;;;0.81;100.00;95189.06;5071971;28;24426;-73
2022/02/14 00:36:22;;;;;;;5.93;4.57;;;;;;;0.87;99.29;95185.47;5071454;28;24439;-73
2022/02/14 00:38:50;;;;;;;5.97;4.38;;;;;;;0.85;99.27;95185.50;5071424;28;24472;-73
2022/02/14 00:41:17;;;;;;;6.25;4.68;;;;;;;0.84;99.61;95183.84;5071631;28;24423;-72
2022/02/14 00:43:43;;;;;;;7.35;4.82;;;;;;;0.87;99.70;95177.81;5071462;28;24430;-73
2022/02/14 00:46:10;;;;;;;6.75;4.60;;;;;;;0.81;100.00;95180.56;5071347;28;24423;-73
2022/02/14 00:48:36;;;;;;;5.63;4.45;;;;;;;0.82;100.00;95184.81;5071114;28;24966;-73
2022/02/14 00:51:03;;;;;;;5.40;4.13;;;;;;;0.72;100.00;95177.47;5071237;28;24980;-73
2022/02/14 00:53:29;;;;;;;7.43;4.15;;;;;;;0.80;100.00;95179.75;5071374;28;24803;-73
2022/02/14 00:55:57;;;;;;;7.35;4.70;;;;;;;0.78;100.00;95162.84;5071204;28;24481;-73
2022/02/14 00:58:24;;;;;;;8.10;4.53;;;;;;;0.80;99.78;95166.19;5070672;28;24488;-73
2022/02/14 01:00:50;;;;;;;6.28;4.32;;;;;;;0.85;99.78;95161.75;5071335;28;24414;-73
2022/02/14 01:03:17;;;;;;;5.72;4.53;;;;;;;0.90;98.58;95152.22;5071139;28;24452;-72
2022/02/14 01:05:43;;;;;;;6.82;4.57;;;;;;;0.95;98.69;95160.53;5070926;28;24835;-72
2022/02/14 01:08:09;;;;;;;6.60;4.88;;;;;;;1.03;97.66;95156.00;5070899;28;24415;-73
2022/02/14 01:10:36;;;;;;;7.95;4.90;;;;;;;1.10;97.40;95154.06;5070921;28;24465;-72
2022/02/14 01:13:04;;;;;;;7.30;4.50;;;;;;;1.17;96.89;95150.41;5070923;28;24426;-73
2022/02/14 01:15:31;;;;;;;8.77;4.65;;;;;;;1.31;95.93;95149.91;5070722;28;24836;-72
2022/02/14 01:17:57;;;;;;;9.38;5.05;;;;;;;1.35;95.10;95139.53;5070602;28;24990;-72
2022/02/14 01:20:23;;;;;;;11.95;5.45;;;;;;;1.42;94.60;95142.69;5071022;28;24415;-72
2022/02/14 01:22:50;;;;;;;5.40;4.38;;;;;;;1.50;92.97;95139.88;5070783;28;24426;-73
2022/02/14 01:25:17;;;;;;;5.63;4.40;;;;;;;1.58;92.72;95136.13;5070501;28;24485;-73
2022/02/14 01:27:43;;;;;;;6.50;4.65;;;;;;;1.63;92.24;95136.81;5070428;28;24788;-73
2022/02/14 01:30:12;;;;;;;5.90;4.28;;;;;;;1.52;92.88;95138.94;5070741;28;24418;-72
2022/02/14 01:32:39;;;;;;;4.90;4.18;;;;;;;1.58;91.91;95131.03;5070617;28;24944;-72
2022/02/14 01:35:07;;;;;;;8.52;4.35;;;;;;;1.56;92.15;95120.06;5070325;28;24987;-72
2022/02/14 01:37:33;;;;;;;5.67;4.07;;;;;;;1.58;91.56;95119.97;5070634;28;24419;-73
2022/02/14 01:40:00;;;;;;;5.00;3.78;;;;;;;1.64;91.51;95123.13;5070430;28;24453;-73
2022/02/14 01:42:26;;;;;;;9.02;4.40;;;;;;;1.62;90.71;95117.25;5070731;28;24415;-73
2022/02/14 01:44:53;;;;;;;11.55;4.75;;;;;;;1.59;90.81;95113.97;5070531;28;24434;-73
2022/02/14 01:47:23;;;;;;;7.82;4.88;;;;;;;1.55;91.56;95105.59;5070155;28;24537;-73
2022/02/14 01:49:51;;;;;;;8.07;4.53;;;;;;;1.52;91.79;95108.31;5070489;28;24430;-73
2022/02/14 01:52:18;;;;;;;6.03;4.22;;;;;;;1.58;91.42;95102.94;5070609;28;25094;-73
2022/02/14 01:54:47;;;;;;;7.13;4.18;;;;;;;1.51;91.76;95098.13;5070561;28;24476;-73
2022/02/14 01:57:15;;;;;;;6.35;4.38;;;;;;;1.37;92.42;95103.75;5070314;28;24513;-73
2022/02/14 01:59:43;;;;;;;6.30;3.60;;;;;;;1.36;93.26;95099.53;5070461;28;24418;-73
2022/02/14 02:02:10;;;;;;;5.68;4.53;;;;;;;1.18;94.22;95101.88;5070404;28;24769;-73
2022/02/14 02:04:42;;;;;;;5.22;4.35;;;;;;;1.19;94.38;95095.09;5070172;28;24815;-73
2022/02/14 02:07:08;;;;;;;6.88;4.15;;;;;;;1.24;94.54;95087.25;5069974;28;24943;-73
2022/02/14 02:09:35;;;;;;;6.68;4.38;;;;;;;1.27;93.54;95090.53;5072553;28;24880;-73
2022/02/14 02:14:46;;;;;;;5.68;4.13;;;;;;;1.23;92.45;95083.06;5074353;28;24848;-73
2022/02/14 02:17:13;;;;;;;5.00;4.07;;;;;;;1.25;91.96;95076.16;5074354;28;24422;-73
2022/02/14 02:19:40;;;;;;;9.18;4.60;;;;;;;1.24;91.34;95077.88;5074124;28;24430;-73
2022/02/14 02:22:07;;;;;;;4.68;3.50;;;;;;;1.27;91.85;95069.28;5074305;28;24419;-73
2022/02/14 02:24:43;;;;;;;8.82;4.28;;;;;;;1.41;89.54;95070.44;5074073;28;24418;-73
2022/02/14 02:27:09;;;;;;;6.28;4.13;;;;;;;1.30;90.39;95070.00;5074222;28;24488;-72
2022/02/14 02:29:37;;;;;;;6.03;3.95;;;;;;;1.26;90.90;95067.59;5074121;28;24797;-72
2022/02/14 02:32:06;;;;;;;6.13;4.00;;;;;;;1.20;89.98;95061.03;5073505;28;24450;-73
2022/02/14 02:34:35;;;;;;;4.88;3.75;;;;;;;1.19;90.67;95056.84;5073995;28;24522;-73
2022/02/14 02:37:01;;;;;;;6.47;3.65;;;;;;;1.23;89.79;95055.00;5073624;28;24959;-73
2022/02/14 02:39:28;;;;;;;5.00;3.92;;;;;;;1.21;89.67;95058.41;5073951;28;24476;-73
2022/02/14 02:41:58;;;;;;;7.78;3.67;;;;;;;1.26;89.35;95047.19;5073836;28;24427;-73
2022/02/14 02:44:25;;;;;;;5.53;3.60;;;;;;;1.24;88.77;95042.16;5073740;28;24855;-73
2022/02/14 02:46:51;;;;;;;5.43;3.80;;;;;;;1.20;89.23;95043.19;5073741;28;24793;-73
2022/02/14 02:49:19;;;;;;;5.50;3.92;;;;;;;1.17;88.57;95044.13;5073822;28;24488;-73
2022/02/14 02:51:48;;;;;;;5.45;3.78;;;;;;;1.11;89.58;95036.72;5073694;28;24450;-73
2022/02/14 02:54:15;;;;;;;7.88;4.05;;;;;;;1.10;89.06;95029.94;5073583;28;24415;-72
2022/02/14 02:56:44;;;;;;;8.53;3.67;;;;;;;1.12;87.93;95025.63;5073170;28;24421;-72
2022/02/14 02:59:13;;;;;;;5.20;3.78;;;;;;;1.09;87.57;95035.09;5073376;28;24414;-72
2022/02/14 03:01:41;;;;;;;5.10;3.65;;;;;;;1.10;87.19;95021.47;5073583;28;24811;-73
2022/02/14 03:04:10;;;;;;;5.20;3.67;;;;;;;1.04;87.70;95026.78;5073379;28;24906;-72
2022/02/14 03:06:37;;;;;;;6.75;3.97;;;;;;;1.00;87.74;95020.97;5073359;28;24468;-73
2022/02/14 03:09:05;;;;;;;6.40;4.15;;;;;;;0.94;88.19;95013.56;5073332;28;24419;-73
2022/02/14 03:11:32;;;;;;;6.80;3.55;;;;;;;0.89;89.79;95011.19;5073123;28;24450;-73
2022/02/14 03:13:59;;;;;;;6.18;3.78;;;;;;;0.96;89.77;95009.22;5073461;28;24514;-73
2022/02/14 03:16:27;;;;;;;5.18;3.47;;;;;;;1.01;89.32;95009.91;5073152;28;24525;-72
2022/02/14 03:18:54;;;;;;;6.93;4.13;;;;;;;0.96;88.66;95004.13;5073018;28;25160;-72
2022/02/14 03:21:21;;;;;;;9.45;3.90;;;;;;;0.99;88.57;95008.28;5072993;28;24967;-72
2022/02/14 03:23:48;;;;;;;6.38;3.50;;;;;;;1.00;87.50;95009.94;5072957;28;24484;-72
2022/02/14 03:26:17;;;;;;;4.38;3.60;;;;;;;1.02;87.68;95016.66;5072709;28;24468;-72
2022/02/14 03:28:43;;;;;;;5.90;3.17;;;;;;;1.02;87.11;95013.28;5072800;28;24511;-73
2022/02/14 03:31:11;;;;;;;4.88;3.63;;;;;;;0.93;87.03;95009.34;5072715;28;25006;-73
2022/02/14 03:33:39;;;;;;;3.70;3.30;;;;;;;0.95;87.31;95010.13;5073067;28;24422;-73
2022/02/14 03:36:06;;;;;;;3.50;3.20;;;;;;;0.91;87.77;95000.91;5072494;28;24427;-73
2022/02/14 03:38:33;;;;;;;4.72;3.50;;;;;;;0.94;86.47;95003.38;5072544;28;24816;-73
2022/02/14 03:41:00;;;;;;;4.55;3.03;;;;;;;0.96;86.79;94999.88;5072852;28;24429;-73
2022/02/14 03:43:26;;;;;;;4.88;3.05;;;;;;;1.01;87.12;94993.78;5072973;28;24422;-73
2022/02/14 03:45:53;;;;;;;4.38;3.50;;;;;;;0.96;86.89;95001.56;5072559;28;24484;-73
2022/02/14 03:48:23;;;;;;;4.70;3.00;;;;;;;0.99;87.45;94992.97;5072576;28;24427;-73
2022/02/14 03:50:51;;;;;;;3.50;3.20;;;;;;;0.91;87.54;94993.28;5072575;28;24476;-73
2022/02/14 03:53:17;;;;;;;8.43;3.70;;;;;;;0.88;86.87;94986.56;5072517;28;24449;-73
2022/02/14 03:55:44;;;;;;;7.25;3.70;;;;;;;0.87;87.30;94989.19;5072558;28;24418;-73
2022/02/14 03:58:11;;;;;;;4.47;3.42;;;;;;;0.90;87.33;94987.34;5072524;28;24420;-72
2022/02/14 04:00:37;;;;;;;5.60;3.47;;;;;;;0.88;86.93;94994.22;5072465;28;24426;-72
2022/02/14 04:03:04;;;;;;;4.27;3.50;;;;;;;0.85;87.21;94990.94;5072347;28;24423;-72
2022/02/14 04:05:30;;;;;;;5.35;3.70;;;;;;;0.92;86.73;94988.09;5072134;28;24426;-72
2022/02/14 04:07:59;;;;;;;4.32;3.30;;;;;;;0.92;87.00;94987.28;5072021;28;24410;-72
2022/02/14 04:10:26;;;;;;;4.32;3.40;;;;;;;0.93;86.00;94983.88;5072421;28;24426;-72
2022/02/14 04:12:53;;;;;;;5.27;3.60;;;;;;;0.92;86.51;94988.09;5072182;28;24487;-72
2022/02/14 04:15:20;;;;;;;4.30;3.15;;;;;;;0.94;85.53;94995.72;5071994;28;24427;-72
2022/02/14 04:17:46;;;;;;;4.40;3.15;;;;;;;0.98;85.16;94992.16;5071793;28;24867;-72
2022/02/14 04:20:14;;;;;;;5.15;3.20;;;;;;;0.99;85.00;94980.22;5072001;28;24423;-72
2022/02/14 04:22:41;;;;;;;9.25;3.70;;;;;;;0.99;85.04;94985.34;5071968;28;24967;-72
2022/02/14 04:25:10;;;;;;;6.20;3.22;;;;;;;0.98;85.24;94979.41;5071947;28;24515;-72
2022/02/14 04:27:36;;;;;;;4.90;3.20;;;;;;;0.96;85.13;94976.06;5071847;28;24403;-72
2022/02/14 04:30:03;;;;;;;6.85;4.00;;;;;;;1.01;84.93;94979.28;5071833;28;24414;-72
2022/02/14 04:32:30;;;;;;;4.60;3.47;;;;;;;1.00;84.34;94977.63;5071180;28;24446;-72
2022/02/14 04:34:56;;;;;;;5.50;3.23;;;;;;;0.96;85.04;94978.63;5071355;28;24484;-72
2022/02/14 04:37:23;;;;;;;5.67;3.40;;;;;;;0.95;85.48;94971.88;5071654;28;24426;-72
2022/02/14 04:39:49;;;;;;;4.75;3.47;;;;;;;0.87;86.25;94969.63;5071771;28;24425;-72
2022/02/14 04:42:17;;;;;;;5.30;3.25;;;;;;;0.91;86.77;94970.34;5071762;28;24498;-72
2022/02/14 04:44:43;;;;;;;4.30;2.97;;;;;;;0.96;86.29;94965.88;5071400;28;24423;-72
2022/02/14 04:47:10;;;;;;;4.57;3.10;;;;;;;0.85;87.24;94968.81;5071368;28;24414;-72
2022/02/14 04:49:37;;;;;;;4.90;3.30;;;;;;;0.85;87.58;94968.00;5071343;28;24484;-72
2022/02/14 04:52:04;;;;;;;5.65;3.63;;;;;;;0.94;86.35;94972.78;5071437;28;24500;-72
2022/02/14 04:54:30;;;;;;;3.78;3.20;;;;;;;0.92;86.83;94964.34;5071340;28;24469;-73
2022/02/14 04:56:57;;;;;;;9.05;3.63;;;;;;;0.83;86.93;94969.78;5071082;28;24423;-72
2022/02/14 04:59:25;;;;;;;7.00;3.25;;;;;;;0.83;87.33;94962.97;5071259;28;24484;-73
2022/02/14 05:01:51;;;;;;;8.52;3.72;;;;;;;0.79;87.83;94955.50;5071085;28;24487;-73
2022/02/14 05:04:18;;;;;;;4.73;3.47;;;;;;;0.77;88.01;94959.81;5070946;28;24922;-72
2022/02/14 05:06:44;;;;;;;3.95;2.80;;;;;;;0.75;88.17;94959.88;5070725;28;24928;-72
2022/02/14 05:09:11;;;;;;;4.25;2.97;;;;;;;0.72;87.63;94968.47;5071209;28;24422;-72
2022/02/14 05:11:37;;;;;;;4.97;3.33;;;;;;;0.76;87.94;94960.72;5070903;28;24472;-72
2022/02/14 05:14:04;;;;;;;5.35;3.33;;;;;;;0.72;88.01;94958.28;5070797;28;24993;-72
2022/02/14 05:16:31;;;;;;;14.38;9.50;;;;;;;0.80;87.65;94960.53;5070587;28;24450;-72
2022/02/14 05:18:58;;;;;;;12.57;8.48;;;;;;;0.84;86.98;94956.16;5070755;28;24426;-72
2022/02/14 05:21:24;;;;;;;7.72;4.60;;;;;;;0.77;86.41;94950.44;5070796;28;24407;-72
2022/02/14 05:23:51;;;;;;;4.38;3.30;;;;;;;0.80;86.36;94957.16;5070922;28;24415;-72
2022/02/14 05:26:18;;;;;;;5.70;3.00;;;;;;;0.85;86.57;94957.81;5070589;28;24421;-72
2022/02/14 05:28:45;;;;;;;4.90;3.22;;;;;;;0.73;86.80;94967.56;5070463;28;24863;-72
2022/02/14 05:31:11;;;;;;;4.05;3.35;;;;;;;0.70;87.13;94964.31;5070662;28;24828;-72
2022/02/14 05:33:39;;;;;;;6.88;4.53;;;;;;;0.72;86.83;94960.00;5070664;28;24457;-72
2022/02/14 05:36:05;;;;;;;6.88;4.28;;;;;;;0.76;86.12;94953.91;5070408;28;24476;-73
2022/02/14 05:38:32;;;;;;;8.90;4.10;;;;;;;0.83;85.34;94955.31;5070472;28;24486;-72
2022/02/14 05:40:58;;;;;;;5.43;3.80;;;;;;;0.85;85.03;94957.81;5070938;28;24442;-72
2022/02/14 05:43:24;;;;;;;8.65;5.15;;;;;;;0.79;84.98;94955.50;5069686;28;24426;-72
2022/02/14 05:45:51;;;;;;;7.25;3.10;;;;;;;0.80;85.31;94957.16;5070393;28;24468;-73
2022/02/14 05:48:17;;;;;;;4.97;3.20;;;;;;;0.83;84.58;94962.16;5070539;28;24419;-72
2022/02/14 05:50:45;;;;;;;3.88;2.95;;;;;;;0.80;84.25;94960.53;5070661;28;24419;-72
2022/02/14 05:53:12;;;;;;;3.80;2.80;;;;;;;0.80;84.07;94962.25;5070435;28;24975;-75
2022/02/14 05:55:38;;;;;;;4.87;3.37;;;;;;;0.87;84.36;94961.13;5070357;28;24479;-75
2022/02/14 05:58:04;;;;;;;3.85;2.92;;;;;;;0.82;83.78;94966.41;5111893;22;24443;-72
2022/02/14 06:00:31;;;;;;;8.63;3.55;;;;;;;0.80;84.68;94967.34;5091115;28;24429;-77
2022/02/14 06:02:58;;;;;;;4.63;2.88;;;;;;;0.84;84.43;94967.19;5090311;28;24422;-78
2022/02/14 06:05:25;;;;;;;6.13;3.47;;;;;;;0.90;84.51;94964.41;5090605;28;24448;-76
2022/02/14 06:07:53;;;;;;;4.80;3.55;;;;;;;0.96;84.32;94959.09;5090584;28;24525;-79
2022/02/14 06:10:19;;;;;;;4.30;3.27;;;;;;;0.98;83.18;94965.84;5091281;28;24966;-78
2022/02/14 06:12:46;;;;;;;5.38;3.13;;;;;;;0.87;83.78;94964.50;5090807;28;24803;-78
2022/02/14 06:15:12;;;;;;;6.70;4.15;;;;;;;0.86;84.45;94967.13;5091310;28;24972;-78
2022/02/14 06:17:39;;;;;;;4.28;3.38;;;;;;;0.87;83.70;94972.16;5091955;28;24418;-79
2022/02/14 06:20:06;;;;;;;4.38;3.13;;;;;;;0.84;84.44;94968.91;5092739;28;24433;-76
2022/02/14 06:22:33;;;;;;;4.33;2.70;;;;;;;0.88;84.00;94965.34;5091545;28;24422;-77
2022/02/14 06:25:01;;;;;;;5.00;3.17;;;;;;;0.92;83.33;94966.88;5091231;28;24414;-75
2022/02/14 06:27:27;;;;;;;4.22;3.08;;;;;;;0.95;83.73;94974.41;5091718;28;24742;-80
2022/02/14 06:29:53;;;;;;;3.10;2.70;;;;;;;0.90;83.97;94966.94;5093525;28;24418;-79
2022/02/14 06:32:20;;;;;;;4.63;3.13;;;;;;;0.79;84.29;94974.19;5093673;28;24446;-77
2022/02/14 06:34:46;;;;;;;4.40;2.97;;;;;;;0.78;84.40;94971.66;5091900;28;24413;-80
2022/02/14 06:37:13;;;;;;;6.20;3.08;;;;;;;0.77;84.11;94970.00;5092283;28;24476;-77
2022/02/14 06:39:39;;;;;;;5.80;3.05;;;;;;;0.79;83.58;94978.44;5091244;28;24461;-76
2022/02/14 06:42:07;;;;;;;5.63;3.70;;;;;;;0.73;84.69;94974.41;5091253;28;24422;-75
2022/02/14 06:44:34;;;;;;;4.53;3.63;;;;;;;0.73;84.10;94974.41;5092569;28;24427;-76
2022/02/14 06:47:01;;;;;;;5.50;3.80;;;;;;;0.59;86.12;94985.09;5092745;28;24425;-78
2022/02/14 06:49:28;;;;;;;4.50;3.50;;;;;;;0.69;85.84;94988.97;5092314;28;25023;-76
2022/02/14 06:51:54;;;;;;;6.03;2.97;;;;;;;0.82;84.70;94980.88;5094878;28;24420;-79
2022/02/14 06:54:21;;;;;;;7.97;3.28;;;;;;;0.80;84.60;94985.19;5094835;28;24422;-80
2022/02/14 06:56:47;;;;;;;8.60;3.05;;;;;;;0.82;84.77;94984.25;5097183;28;24434;-76
2022/02/14 06:59:15;;;;;;;4.10;3.08;;;;;;;0.81;84.54;94989.41;5094858;28;24434;-73
2022/02/14 07:01:41;;;;;;;7.20;2.85;;;;;;;0.81;84.70;94984.31;5094261;28;24422;-76
2022/02/14 07:04:09;;;;;;;4.65;3.15;;;;;;;0.83;84.45;94985.91;5095155;28;24861;-78
2022/02/14 07:06:36;;;;;;;3.90;2.70;;;;;;;0.78;83.98;94984.41;5096600;28;24466;-78
2022/02/14 07:09:02;;;;;;;4.25;2.88;;;;;;;0.68;85.05;94983.94;5095696;28;24784;-75
2022/02/14 07:11:29;;;;;;;4.05;2.70;;;;;;;0.73;84.70;94990.50;5093737;28;24954;-74
2022/02/14 07:13:56;;;;;;;4.53;3.00;;;;;;;0.85;84.71;94986.66;5094952;28;25036;-77
2022/02/14 07:16:23;;;;;;;5.20;3.05;;;;;;;0.98;83.89;94988.78;5095664;28;24421;-79
2022/02/14 07:18:50;;;;;;;4.97;3.13;;;;;;;1.03;83.32;94986.88;5096849;28;24430;-79
2022/02/14 07:21:17;;;;;;;4.15;2.63;;;;;;;1.19;85.84;94993.91;5094015;28;24959;-73
2022/02/14 07:23:43;;;;;;;3.83;3.13;;;;;;;1.21;84.32;94992.09;5095572;28;24476;-78
2022/02/14 07:26:10;;;;;;;6.15;3.65;;;;;;;1.38;83.73;94981.25;5095383;28;24459;-79
2022/02/14 07:28:36;;;;;;;12.63;8.15;;;;;;;1.60;82.41;94977.84;5094846;28;24429;-80
2022/02/14 07:31:03;;;;;;;14.65;9.07;;;;;;;1.72;81.32;94973.97;5094797;28;24814;-75
2022/02/14 07:33:33;;;;;;;11.38;5.43;;;;;;;1.75;80.61;94974.66;5097322;28;24446;-76
2022/02/14 07:35:59;;;;;;;7.43;4.90;;;;;;;1.91;80.70;94982.50;5098116;28;24430;-77
2022/02/14 07:38:26;;;;;;;6.20;4.03;;;;;;;2.12;78.71;94975.69;5096711;28;24485;-75
2022/02/14 07:40:52;;;;;;;8.40;3.42;;;;;;;2.37;78.12;94972.88;5094844;28;24430;-78
2022/02/14 07:43:19;;;;;;;4.25;2.83;;;;;;;2.63;77.58;94974.28;5094331;28;24418;-75
2022/02/14 07:45:45;;;;;;;6.18;4.18;;;;;;;2.73;75.17;94982.41;5093242;28;24467;-75
2022/02/14 07:48:12;;;;;;;7.35;5.68;;;;;;;2.65;75.03;94978.44;5093125;28;24430;-75
2022/02/14 07:50:39;;;;;;;9.05;6.03;;;;;;;2.71;74.91;94982.47;5093096;28;24822;-75
2022/02/14 07:53:09;;;;;;;13.98;7.13;;;;;;;2.92;75.05;94986.59;5093179;28;24992;-76
2022/02/14 07:55:35;;;;;;;8.27;5.15;;;;;;;2.98;72.92;94979.56;5093385;28;24437;-73
2022/02/14 07:58:04;;;;;;;7.13;3.67;;;;;;;3.30;71.95;94985.72;5094886;28;24418;-76
2022/02/14 08:00:30;;;;;;;5.03;3.53;;;;;;;3.47;69.06;94972.16;5093364;28;25008;-75
2022/02/14 08:02:57;;;;;;;3.83;2.80;;;;;;;3.53;68.88;94977.00;5092542;28;24422;-75
2022/02/14 08:05:23;;;;;;;8.10;2.92;;;;;;;3.66;67.62;94975.47;5092264;28;24471;-75
2022/02/14 08:07:51;;;;;;;9.75;2.90;;;;;;;3.84;68.04;94979.72;5091519;28;24426;-75
2022/02/14 08:10:18;;;;;;;5.07;2.55;;;;;;;4.05;68.32;94979.56;5092486;28;24776;-75
2022/02/14 08:12:44;;;;;;;5.20;2.58;;;;;;;4.09;66.56;94975.94;5092277;28;25001;-75
2022/02/14 08:15:11;;;;;;;9.00;3.38;;;;;;;4.31;65.78;94973.13;5092217;28;24422;-74
2022/02/14 08:17:37;;;;;;;6.18;3.03;;;;;;;4.04;66.00;94970.19;5094007;28;24829;-76
2022/02/14 08:20:04;;;;;;;3.25;2.60;;;;;;;3.92;65.79;94973.38;5095168;28;24849;-76
2022/02/14 08:22:31;;;;;;;4.57;2.70;;;;;;;3.88;66.42;94967.59;5092395;28;24426;-76
2022/02/14 08:24:59;;;;;;;4.82;3.10;;;;;;;3.94;65.41;94957.03;5092224;28;24505;-75
2022/02/14 08:27:25;;;;;;;5.18;3.42;;;;;;;4.33;65.25;94958.47;5092751;28;24802;-75
2022/02/14 08:29:52;;;;;;;6.57;3.70;;;;;;;4.40;62.83;94956.44;5092582;28;24430;-78
2022/02/14 08:32:19;;;;;;;9.77;4.72;;;;;;;4.40;62.99;94964.94;5095950;28;24504;-78
2022/02/14 08:34:45;;;;;;;5.85;4.13;;;;;;;4.23;63.29;94962.44;5092532;28;24850;-76
2022/02/14 08:37:13;;;;;;;7.07;4.10;;;;;;;4.39;64.35;94968.44;5094331;28;24492;-76
2022/02/14 08:39:40;;;;;;;5.53;3.80;;;;;;;4.55;62.85;94965.91;5093371;28;24465;-76
2022/02/14 08:42:08;;;;;;;6.28;3.80;;;;;;;4.64;62.58;94960.31;5084675;28;24430;-76
2022/02/14 08:44:35;;;;;;;5.05;2.97;;;;;;;5.02;61.65;94950.56;5091533;28;24433;-75
2022/02/14 08:47:01;;;;;;;8.07;2.70;;;;;;;5.42;61.09;94948.38;5092404;28;24437;-77
2022/02/14 08:49:29;;;;;;;7.43;3.08;;;;;;;4.98;60.51;94948.25;5093920;28;24467;-73
2022/02/14 08:51:56;;;;;;;4.57;2.70;;;;;;;4.77;62.17;94932.25;5094624;28;24425;-76
2022/02/14 08:54:23;;;;;;;5.03;3.00;;;;;;;4.61;63.31;94935.63;5091197;28;24481;-75
2022/02/14 08:56:49;;;;;;;4.13;2.83;;;;;;;4.69;63.52;94934.41;5078461;28;24890;-75
2022/02/14 08:59:19;;;;;;;5.35;2.78;;;;;;;4.55;64.04;94940.25;5071041;28;24796;-75
2022/02/14 09:01:47;;;;;;;5.30;3.20;;;;;;;4.51;64.04;94931.91;5070497;28;24999;-76
2022/02/14 09:04:13;;;;;;;4.90;2.87;;;;;;;4.53;65.37;94937.78;5072983;28;24479;-77
2022/02/14 09:06:40;;;;;;;8.30;3.00;;;;;;;4.49;64.74;94938.84;5076397;28;24585;-77
2022/02/14 09:09:07;;;;;;;9.40;3.30;;;;;;;4.60;64.49;94941.69;5091421;28;24521;-77
2022/02/14 09:11:33;;;;;;;4.70;2.63;;;;;;;4.78;64.47;94929.63;5089210;28;24519;-77
2022/02/14 09:14:00;;;;;;;5.47;2.85;;;;;;;5.19;63.56;94926.56;5090335;28;24466;-77
2022/02/14 09:16:28;;;;;;;6.00;3.00;;;;;;;5.55;61.36;94928.78;5076111;28;24808;-76
2022/02/14 09:18:54;;;;;;;5.57;3.10;;;;;;;5.57;61.32;94919.25;5091056;28;24780;-77
2022/02/14 09:21:20;;;;;;;5.88;3.17;;;;;;;5.61;61.37;94916.53;5090476;28;25002;-76
2022/02/14 09:23:47;;;;;;;4.38;2.80;;;;;;;5.54;61.94;94909.16;5091480;28;24422;-82
2022/02/14 09:26:13;;;;;;;4.75;3.40;;;;;;;5.57;62.34;94911.56;5092654;28;24815;-79
2022/02/14 09:28:40;;;;;;;8.38;3.40;;;;;;;5.38;63.49;94908.38;5093600;28;24959;-79
2022/02/14 09:31:07;;;;;;;3.92;2.95;;;;;;;5.31;64.64;94913.03;5090546;28;24438;-76
2022/02/14 09:33:35;;;;;;;6.72;3.15;;;;;;;5.29;65.13;94906.31;5090899;28;24528;-75
2022/02/14 09:36:01;;;;;;;6.07;2.85;;;;;;;5.34;64.92;94910.28;5075504;28;24430;-76
2022/02/14 09:38:28;;;;;;;5.88;2.53;;;;;;;5.39;65.11;94907.47;5070116;28;24808;-77
2022/02/14 09:40:54;;;;;;;6.63;2.90;;;;;;;5.45;65.71;94908.84;5080887;28;24540;-76
2022/02/14 09:43:21;;;;;;;5.83;3.20;;;;;;;5.51;65.18;94901.63;5070482;28;25057;-76
2022/02/14 09:45:48;;;;;;;5.57;3.00;;;;;;;5.61;65.79;94898.53;5082330;28;24473;-76
2022/02/14 09:48:16;;;;;;;5.72;2.88;;;;;;;5.61;65.44;94898.53;5069995;28;24834;-76
2022/02/14 09:50:44;;;;;;;4.17;2.67;;;;;;;5.56;65.96;94898.78;5070331;28;24521;-75
2022/02/14 09:53:14;;;;;;;11.25;3.25;;;;;;;5.58;66.19;94899.53;5070196;28;24426;-74
2022/02/14 09:55:41;;;;;;;6.38;3.17;;;;;;;5.58;66.57;94896.97;5080939;28;24800;-75
2022/02/14 09:58:07;;;;;;;7.13;2.90;;;;;;;5.69;66.62;94892.03;5069789;28;24901;-75
2022/02/14 10:00:34;;;;;;;5.37;2.87;;;;;;;5.79;66.66;94898.31;5070128;28;24434;-75
2022/02/14 10:03:16;;;;;;;5.78;2.95;;;;;;;5.97;67.25;94891.31;5070293;28;24442;-75
2022/02/14 10:05:46;;;;;;;8.07;2.67;;;;;;;6.14;67.37;94889.47;5087314;28;24442;-75
2022/02/14 10:08:23;;;;;;;5.45;2.65;;;;;;;6.36;66.83;94894.16;5090800;28;24436;-76
2022/02/14 10:10:52;;;;;;;6.55;2.97;;;;;;;6.38;67.69;94894.88;5075551;28;24442;-75
2022/02/14 10:13:31;;;;;;;6.07;2.60;;;;;;;6.48;68.91;94904.53;5090209;28;24446;-75
2022/02/14 10:15:58;;;;;;;5.72;2.53;;;;;;;6.55;68.88;94902.41;5087522;28;24863;-75
2022/02/14 10:18:31;;;;;;;5.13;2.40;;;;;;;6.65;67.84;94902.69;5069740;28;24476;-76
2022/02/14 10:21:28;;;;;;;7.63;2.70;;;;;;;6.84;68.36;94905.78;5070088;28;24517;-76
2022/02/14 10:24:08;;;;;;;5.38;2.72;;;;;;;6.90;67.62;94907.97;5082258;28;24430;-77
2022/02/14 10:26:36;;;;;;;6.03;2.80;;;;;;;6.94;67.40;94908.63;5069501;28;24804;-77
2022/02/14 10:29:11;;;;;;;8.85;2.95;;;;;;;7.02;68.20;94907.22;5069783;28;24434;-77
2022/02/14 10:31:45;;;;;;;8.38;2.60;;;;;;;7.15;67.52;94903.84;5073250;28;24804;-76
2022/02/14 10:34:13;;;;;;;5.93;2.70;;;;;;;7.31;67.29;94914.84;5093545;28;24450;-76
2022/02/14 10:36:43;;;;;;;5.10;3.00;;;;;;;7.47;67.37;94909.53;5093886;28;24445;-76
2022/02/14 10:39:12;;;;;;;9.02;3.13;;;;;;;7.72;66.03;94899.31;5093857;28;24791;-78
2022/02/14 10:41:52;;;;;;;8.23;2.53;;;;;;;7.76;65.68;94899.94;5093424;28;24434;-76
2022/02/14 10:47:12;;;;;;;27.10;3.13;;;;;;;7.83;66.36;94884.91;5081764;28;24823;-76
2022/02/14 10:49:39;;;;;;;6.10;2.80;;;;;;;7.95;66.67;94890.03;5073542;28;24435;-76
2022/02/14 10:52:09;;;;;;;5.45;2.72;;;;;;;8.03;66.27;94884.38;5073511;28;24954;-76
2022/02/14 10:54:38;;;;;;;9.07;2.90;;;;;;;8.20;66.87;94878.09;5078471;28;25000;-77
2022/02/14 10:57:05;;;;;;;8.05;2.40;;;;;;;8.37;66.81;94876.94;5073429;28;20810;-76
2022/02/14 10:59:31;;;;;;;5.72;2.40;;;;;;;8.44;66.48;94875.63;5073326;28;24435;-76
2022/02/14 11:01:58;;;;;;;10.30;2.63;;;;;;;8.50;66.89;94880.38;5073059;28;20827;-77
2022/02/14 11:04:24;;;;;;;8.40;2.55;;;;;;;8.66;67.39;94872.38;5077975;28;21130;-77
2022/02/14 11:06:52;;;;;;;7.32;2.40;;;;;;;8.66;66.73;94872.38;5077599;28;20832;-76
2022/02/14 11:09:21;;;;;;;5.35;2.30;;;;;;;8.79;67.91;94869.75;5093371;28;20767;-76
2022/02/14 11:11:50;;;;;;;3.95;2.20;;;;;;;8.84;67.60;94878.84;5093489;28;21151;-76
2022/02/14 11:14:18;;;;;;;8.52;2.50;;;;;;;8.99;66.30;94870.97;5092462;28;24863;-76
2022/02/14 11:16:46;;;;;;;4.13;2.43;;;;;;;8.93;68.95;94869.63;5084155;28;20817;-76
2022/02/14 11:19:13;;;;;;;7.97;2.20;;;;;;;8.90;70.06;94865.53;5072949;28;20814;-76
2022/02/14 11:21:40;;;;;;;11.48;3.92;;;;;;;8.94;70.16;94869.53;5073060;28;24433;-76
2022/02/14 11:24:25;;;;;;;4.75;2.63;;;;;;;9.00;69.96;94865.69;5076254;28;24669;-75
2022/02/14 11:27:01;;;;;;;9.98;3.67;;;;;;;9.03;71.86;94868.03;5088787;28;20794;-76
2022/02/14 11:29:42;;;;;;;5.47;2.05;;;;;;;9.07;71.57;94859.13;5093028;28;20742;-75
2022/02/14 11:32:25;;;;;;;7.37;2.60;;;;;;;9.17;73.56;94856.75;5081025;28;20777;-75
2022/02/14 11:34:57;;;;;;;9.90;4.07;;;;;;;9.12;75.26;94848.47;5081876;28;24667;-76
2022/02/14 11:37:25;;;;;;;4.68;2.08;;;;;;;9.10;77.51;94847.78;5092803;28;24418;-75
2022/02/14 11:39:53;;;;;;;6.57;1.80;;;;;;;9.16;77.32;94844.75;5089131;28;24437;-77
2022/02/14 11:42:19;;;;;;;3.95;2.13;;;;;;;9.06;78.90;94838.59;5071285;28;24446;-75
2022/02/14 11:44:46;;;;;;;6.20;2.40;;;;;;;9.16;78.84;94832.66;5081370;28;24790;-75
2022/02/14 11:47:14;;;;;;;4.05;2.08;;;;;;;9.12;79.73;94835.56;5079978;28;24480;-75
2022/02/14 11:49:42;;;;;;;7.07;2.70;;;;;;;9.17;80.89;94836.06;5072442;28;24431;-75